sensor_id;sensor_type;location;lat;lon;timestamp;temperature;humidity
4390;DHT22;2209;48.982;8.406;2022-07-23T00:01:58;27.60;82.90
4390;DHT22;2209;48.982;8.406;2022-07-23T00:04:21;27.60;82.90
4390;DHT22;2209;48.982;8.406;2022-07-23T00:06:43;27.60;82.90
4390;DHT22;2209;48.982;8.406;2022-07-23T00:09:06;27.60;83.00
4390;DHT22;2209;48.982;8.406;2022-07-23T00:11:28;27.60;83.00
4390;DHT22;2209;48.982;8.406;2022-07-23T00:13:50;27.60;83.00
4390;DHT22;2209;48.982;8.406;2022-07-23T00:16:14;27.50;82.90
4390;DHT22;2209;48.982;8.406;2022-07-23T00:18:36;27.50;83.00
4390;DHT22;2209;48.982;8.406;2022-07-23T00:20:58;27.50;83.10
4390;DHT22;2209;48.982;8.406;2022-07-23T00:23:20;27.50;83.20
4390;DHT22;2209;48.982;8.406;2022-07-23T00:25:44;27.50;83.30
4390;DHT22;2209;48.982;8.406;2022-07-23T00:28:06;27.40;83.10
4390;DHT22;2209;48.982;8.406;2022-07-23T00:30:30;27.40;83.10
4390;DHT22;2209;48.982;8.406;2022-07-23T00:32:54;27.30;83.00
4390;DHT22;2209;48.982;8.406;2022-07-23T00:35:19;27.30;82.80
4390;DHT22;2209;48.982;8.406;2022-07-23T00:37:42;27.30;82.50
4390;DHT22;2209;48.982;8.406;2022-07-23T00:40:05;27.30;82.10
4390;DHT22;2209;48.982;8.406;2022-07-23T00:42:31;27.30;81.90
4390;DHT22;2209;48.982;8.406;2022-07-23T00:44:53;27.30;81.10
4390;DHT22;2209;48.982;8.406;2022-07-23T00:47:15;27.30;80.50
4390;DHT22;2209;48.982;8.406;2022-07-23T00:49:37;27.30;80.10
4390;DHT22;2209;48.982;8.406;2022-07-23T00:52:01;27.30;79.90
4390;DHT22;2209;48.982;8.406;2022-07-23T00:54:26;27.30;79.60
4390;DHT22;2209;48.982;8.406;2022-07-23T00:56:49;27.30;79.50
4390;DHT22;2209;48.982;8.406;2022-07-23T00:59:13;27.30;79.30
4390;DHT22;2209;48.982;8.406;2022-07-23T01:01:35;27.30;79.00
4390;DHT22;2209;48.982;8.406;2022-07-23T01:03:58;27.20;78.90
4390;DHT22;2209;48.982;8.406;2022-07-23T01:06:20;27.20;78.90
4390;DHT22;2209;48.982;8.406;2022-07-23T01:08:42;27.20;78.70
4390;DHT22;2209;48.982;8.406;2022-07-23T01:11:05;27.10;78.40
4390;DHT22;2209;48.982;8.406;2022-07-23T01:13:27;27.10;78.20
4390;DHT22;2209;48.982;8.406;2022-07-23T01:15:50;27.10;78.20
4390;DHT22;2209;48.982;8.406;2022-07-23T01:18:13;27.20;78.10
4390;DHT22;2209;48.982;8.406;2022-07-23T01:20:35;27.20;78.00
4390;DHT22;2209;48.982;8.406;2022-07-23T01:22:59;27.20;77.80
4390;DHT22;2209;48.982;8.406;2022-07-23T01:25:21;27.30;77.80
4390;DHT22;2209;48.982;8.406;2022-07-23T01:27:44;27.30;77.50
4390;DHT22;2209;48.982;8.406;2022-07-23T01:30:07;27.30;77.50
4390;DHT22;2209;48.982;8.406;2022-07-23T01:32:29;27.30;77.30
4390;DHT22;2209;48.982;8.406;2022-07-23T01:34:51;27.30;77.50
4390;DHT22;2209;48.982;8.406;2022-07-23T01:37:13;27.20;76.70
4390;DHT22;2209;48.982;8.406;2022-07-23T01:39:37;27.20;76.70
4390;DHT22;2209;48.982;8.406;2022-07-23T01:42:00;27.10;76.50
4390;DHT22;2209;48.982;8.406;2022-07-23T01:44:22;27.10;76.50
4390;DHT22;2209;48.982;8.406;2022-07-23T01:46:44;27.10;76.30
4390;DHT22;2209;48.982;8.406;2022-07-23T01:49:06;27.10;76.00
4390;DHT22;2209;48.982;8.406;2022-07-23T01:51:28;27.10;75.70
4390;DHT22;2209;48.982;8.406;2022-07-23T01:53:50;27.10;75.80
4390;DHT22;2209;48.982;8.406;2022-07-23T01:56:14;27.10;75.70
4390;DHT22;2209;48.982;8.406;2022-07-23T01:58:36;27.10;75.50
4390;DHT22;2209;48.982;8.406;2022-07-23T02:00:59;27.10;75.30
4390;DHT22;2209;48.982;8.406;2022-07-23T02:03:22;27.10;75.30
4390;DHT22;2209;48.982;8.406;2022-07-23T02:05:44;27.20;75.40
4390;DHT22;2209;48.982;8.406;2022-07-23T02:08:06;27.20;75.20
4390;DHT22;2209;48.982;8.406;2022-07-23T02:10:28;27.10;75.20
4390;DHT22;2209;48.982;8.406;2022-07-23T02:12:52;27.10;75.20
4390;DHT22;2209;48.982;8.406;2022-07-23T02:15:14;27.10;75.10
4390;DHT22;2209;48.982;8.406;2022-07-23T02:17:36;27.10;74.70
4390;DHT22;2209;48.982;8.406;2022-07-23T02:19:58;27.00;74.50
4390;DHT22;2209;48.982;8.406;2022-07-23T02:22:21;27.00;74.40
4390;DHT22;2209;48.982;8.406;2022-07-23T02:24:43;27.00;74.50
4390;DHT22;2209;48.982;8.406;2022-07-23T02:27:05;27.00;74.60
4390;DHT22;2209;48.982;8.406;2022-07-23T02:29:29;26.90;74.50
4390;DHT22;2209;48.982;8.406;2022-07-23T02:31:51;26.90;74.60
4390;DHT22;2209;48.982;8.406;2022-07-23T02:34:13;26.90;74.80
4390;DHT22;2209;48.982;8.406;2022-07-23T02:36:35;26.90;74.50
4390;DHT22;2209;48.982;8.406;2022-07-23T02:38:57;26.90;74.50
4390;DHT22;2209;48.982;8.406;2022-07-23T02:41:19;26.90;74.40
4390;DHT22;2209;48.982;8.406;2022-07-23T02:43:42;26.90;74.20
4390;DHT22;2209;48.982;8.406;2022-07-23T02:46:05;26.80;73.90
4390;DHT22;2209;48.982;8.406;2022-07-23T02:48:27;26.80;73.70
4390;DHT22;2209;48.982;8.406;2022-07-23T02:50:49;26.80;73.80
4390;DHT22;2209;48.982;8.406;2022-07-23T02:53:13;26.80;73.70
4390;DHT22;2209;48.982;8.406;2022-07-23T02:55:35;26.80;73.70
4390;DHT22;2209;48.982;8.406;2022-07-23T02:57:57;26.80;73.70
4390;DHT22;2209;48.982;8.406;2022-07-23T03:00:19;26.80;73.70
4390;DHT22;2209;48.982;8.406;2022-07-23T03:02:43;26.80;73.70
4390;DHT22;2209;48.982;8.406;2022-07-23T03:05:06;26.80;73.80
4390;DHT22;2209;48.982;8.406;2022-07-23T03:07:28;26.70;73.80
4390;DHT22;2209;48.982;8.406;2022-07-23T03:09:50;26.80;73.90
4390;DHT22;2209;48.982;8.406;2022-07-23T03:12:12;26.80;74.00
4390;DHT22;2209;48.982;8.406;2022-07-23T03:14:34;26.70;73.80
4390;DHT22;2209;48.982;8.406;2022-07-23T03:16:57;26.80;73.90
4390;DHT22;2209;48.982;8.406;2022-07-23T03:19:21;26.80;74.00
4390;DHT22;2209;48.982;8.406;2022-07-23T03:21:44;26.80;73.90
4390;DHT22;2209;48.982;8.406;2022-07-23T03:24:07;26.80;73.90
4390;DHT22;2209;48.982;8.406;2022-07-23T03:26:29;26.70;73.90
4390;DHT22;2209;48.982;8.406;2022-07-23T03:28:51;26.70;74.10
4390;DHT22;2209;48.982;8.406;2022-07-23T03:31:13;26.60;74.10
4390;DHT22;2209;48.982;8.406;2022-07-23T03:33:35;26.60;74.20
4390;DHT22;2209;48.982;8.406;2022-07-23T03:35:59;26.60;74.20
4390;DHT22;2209;48.982;8.406;2022-07-23T03:38:21;26.60;74.20
4390;DHT22;2209;48.982;8.406;2022-07-23T03:40:43;26.60;74.30
4390;DHT22;2209;48.982;8.406;2022-07-23T03:43:05;26.60;74.10
4390;DHT22;2209;48.982;8.406;2022-07-23T03:45:28;26.60;74.10
4390;DHT22;2209;48.982;8.406;2022-07-23T03:47:50;26.60;74.10
4390;DHT22;2209;48.982;8.406;2022-07-23T03:50:12;26.60;74.10
4390;DHT22;2209;48.982;8.406;2022-07-23T03:52:36;26.60;74.00
4390;DHT22;2209;48.982;8.406;2022-07-23T03:54:58;26.60;74.00
4390;DHT22;2209;48.982;8.406;2022-07-23T03:57:20;26.60;74.20
4390;DHT22;2209;48.982;8.406;2022-07-23T03:59:42;26.50;74.30
4390;DHT22;2209;48.982;8.406;2022-07-23T04:02:04;26.50;74.50
4390;DHT22;2209;48.982;8.406;2022-07-23T04:04:26;26.40;74.50
4390;DHT22;2209;48.982;8.406;2022-07-23T04:06:48;26.40;74.60
4390;DHT22;2209;48.982;8.406;2022-07-23T04:09:12;26.40;74.70
4390;DHT22;2209;48.982;8.406;2022-07-23T04:11:34;26.40;74.80
4390;DHT22;2209;48.982;8.406;2022-07-23T04:13:56;26.40;74.70
4390;DHT22;2209;48.982;8.406;2022-07-23T04:16:18;26.50;74.90
4390;DHT22;2209;48.982;8.406;2022-07-23T04:18:40;26.50;74.80
4390;DHT22;2209;48.982;8.406;2022-07-23T04:21:03;26.50;74.90
4390;DHT22;2209;48.982;8.406;2022-07-23T04:23:25;26.50;74.60
4390;DHT22;2209;48.982;8.406;2022-07-23T04:25:49;26.50;75.00
4390;DHT22;2209;48.982;8.406;2022-07-23T04:28:11;26.40;75.10
4390;DHT22;2209;48.982;8.406;2022-07-23T04:30:33;26.40;75.20
4390;DHT22;2209;48.982;8.406;2022-07-23T04:32:55;26.40;75.30
4390;DHT22;2209;48.982;8.406;2022-07-23T04:35:17;26.40;75.40
4390;DHT22;2209;48.982;8.406;2022-07-23T04:37:39;26.30;75.60
4390;DHT22;2209;48.982;8.406;2022-07-23T04:40:02;26.30;75.90
4390;DHT22;2209;48.982;8.406;2022-07-23T04:42:25;26.30;76.00
4390;DHT22;2209;48.982;8.406;2022-07-23T04:44:48;26.30;76.10
4390;DHT22;2209;48.982;8.406;2022-07-23T04:47:10;26.30;76.00
4390;DHT22;2209;48.982;8.406;2022-07-23T04:49:32;26.40;76.10
4390;DHT22;2209;48.982;8.406;2022-07-23T04:51:54;26.40;76.00
4390;DHT22;2209;48.982;8.406;2022-07-23T04:54:16;26.40;75.80
4390;DHT22;2209;48.982;8.406;2022-07-23T04:56:39;26.40;76.10
4390;DHT22;2209;48.982;8.406;2022-07-23T04:59:02;26.30;76.00
4390;DHT22;2209;48.982;8.406;2022-07-23T05:01:24;26.30;76.20
4390;DHT22;2209;48.982;8.406;2022-07-23T05:03:46;26.20;76.20
4390;DHT22;2209;48.982;8.406;2022-07-23T05:06:09;26.20;76.40
4390;DHT22;2209;48.982;8.406;2022-07-23T05:08:31;26.20;76.50
4390;DHT22;2209;48.982;8.406;2022-07-23T05:10:54;26.20;76.60
4390;DHT22;2209;48.982;8.406;2022-07-23T05:13:17;26.20;76.70
4390;DHT22;2209;48.982;8.406;2022-07-23T05:15:40;26.20;76.90
4390;DHT22;2209;48.982;8.406;2022-07-23T05:18:03;26.20;76.80
4390;DHT22;2209;48.982;8.406;2022-07-23T05:20:25;26.20;76.70
4390;DHT22;2209;48.982;8.406;2022-07-23T05:22:47;26.20;77.70
4390;DHT22;2209;48.982;8.406;2022-07-23T05:25:09;26.20;76.80
4390;DHT22;2209;48.982;8.406;2022-07-23T05:27:32;26.20;76.90
4390;DHT22;2209;48.982;8.406;2022-07-23T05:29:54;26.10;77.20
4390;DHT22;2209;48.982;8.406;2022-07-23T05:32:18;26.00;77.70
4390;DHT22;2209;48.982;8.406;2022-07-23T05:34:40;26.00;77.90
4390;DHT22;2209;48.982;8.406;2022-07-23T05:37:02;26.00;78.20
4390;DHT22;2209;48.982;8.406;2022-07-23T05:39:24;26.00;78.30
4390;DHT22;2209;48.982;8.406;2022-07-23T05:41:47;26.10;78.60
4390;DHT22;2209;48.982;8.406;2022-07-23T05:44:09;26.10;78.60
4390;DHT22;2209;48.982;8.406;2022-07-23T05:46:31;26.10;78.50
4390;DHT22;2209;48.982;8.406;2022-07-23T05:48:55;26.10;78.30
4390;DHT22;2209;48.982;8.406;2022-07-23T05:51:19;26.10;78.30
4390;DHT22;2209;48.982;8.406;2022-07-23T05:53:42;26.10;78.20
4390;DHT22;2209;48.982;8.406;2022-07-23T05:56:04;26.10;78.20
4390;DHT22;2209;48.982;8.406;2022-07-23T05:58:26;26.10;78.20
4390;DHT22;2209;48.982;8.406;2022-07-23T06:00:49;26.10;78.20
4390;DHT22;2209;48.982;8.406;2022-07-23T06:03:11;26.10;78.20
4390;DHT22;2209;48.982;8.406;2022-07-23T06:05:35;26.10;78.40
4390;DHT22;2209;48.982;8.406;2022-07-23T06:07:57;26.10;78.80
4390;DHT22;2209;48.982;8.406;2022-07-23T06:10:20;26.10;79.40
4390;DHT22;2209;48.982;8.406;2022-07-23T06:12:42;26.10;81.90
4390;DHT22;2209;48.982;8.406;2022-07-23T06:15:05;26.10;84.50
4390;DHT22;2209;48.982;8.406;2022-07-23T06:17:28;26.10;84.60
4390;DHT22;2209;48.982;8.406;2022-07-23T06:19:50;26.10;83.30
4390;DHT22;2209;48.982;8.406;2022-07-23T06:22:14;26.00;82.40
4390;DHT22;2209;48.982;8.406;2022-07-23T06:24:36;26.00;82.80
4390;DHT22;2209;48.982;8.406;2022-07-23T06:26:58;25.90;83.30
4390;DHT22;2209;48.982;8.406;2022-07-23T06:29:20;25.90;83.80
4390;DHT22;2209;48.982;8.406;2022-07-23T06:31:43;25.90;84.60
4390;DHT22;2209;48.982;8.406;2022-07-23T06:34:05;25.90;86.10
4390;DHT22;2209;48.982;8.406;2022-07-23T06:36:27;25.90;87.90
4390;DHT22;2209;48.982;8.406;2022-07-23T06:38:51;25.90;88.30
4390;DHT22;2209;48.982;8.406;2022-07-23T06:41:13;25.90;87.30
4390;DHT22;2209;48.982;8.406;2022-07-23T06:43:35;25.80;86.50
4390;DHT22;2209;48.982;8.406;2022-07-23T06:45:57;25.80;86.40
4390;DHT22;2209;48.982;8.406;2022-07-23T06:48:19;25.80;86.40
4390;DHT22;2209;48.982;8.406;2022-07-23T06:50:43;25.90;86.70
4390;DHT22;2209;48.982;8.406;2022-07-23T06:53:05;25.90;87.10
4390;DHT22;2209;48.982;8.406;2022-07-23T06:55:28;25.90;87.30
4390;DHT22;2209;48.982;8.406;2022-07-23T06:57:51;25.90;87.30
4390;DHT22;2209;48.982;8.406;2022-07-23T07:00:14;25.90;87.40
4390;DHT22;2209;48.982;8.406;2022-07-23T07:02:36;25.90;87.80
4390;DHT22;2209;48.982;8.406;2022-07-23T07:04:58;25.90;88.10
4390;DHT22;2209;48.982;8.406;2022-07-23T07:07:20;25.90;88.20
4390;DHT22;2209;48.982;8.406;2022-07-23T07:09:42;25.90;88.40
4390;DHT22;2209;48.982;8.406;2022-07-23T07:12:07;25.90;89.10
4390;DHT22;2209;48.982;8.406;2022-07-23T07:14:30;25.90;89.80
4390;DHT22;2209;48.982;8.406;2022-07-23T07:16:52;25.80;90.00
4390;DHT22;2209;48.982;8.406;2022-07-23T07:19:14;25.80;90.10
4390;DHT22;2209;48.982;8.406;2022-07-23T07:21:36;25.80;90.40
4390;DHT22;2209;48.982;8.406;2022-07-23T07:23:58;25.70;90.70
4390;DHT22;2209;48.982;8.406;2022-07-23T07:26:20;25.80;91.10
4390;DHT22;2209;48.982;8.406;2022-07-23T07:28:44;25.70;90.80
4390;DHT22;2209;48.982;8.406;2022-07-23T07:31:06;25.70;90.40
4390;DHT22;2209;48.982;8.406;2022-07-23T07:33:28;25.70;90.00
4390;DHT22;2209;48.982;8.406;2022-07-23T07:35:51;25.70;89.40
4390;DHT22;2209;48.982;8.406;2022-07-23T07:38:13;25.70;89.20
4390;DHT22;2209;48.982;8.406;2022-07-23T07:40:35;25.70;89.50
4390;DHT22;2209;48.982;8.406;2022-07-23T07:42:57;25.70;89.90
4390;DHT22;2209;48.982;8.406;2022-07-23T07:45:21;25.70;90.10
4390;DHT22;2209;48.982;8.406;2022-07-23T07:47:44;25.70;90.20
4390;DHT22;2209;48.982;8.406;2022-07-23T07:50:06;25.70;90.20
4390;DHT22;2209;48.982;8.406;2022-07-23T07:52:29;25.70;90.00
4390;DHT22;2209;48.982;8.406;2022-07-23T07:54:51;25.70;89.90
4390;DHT22;2209;48.982;8.406;2022-07-23T07:57:13;25.70;90.00
4390;DHT22;2209;48.982;8.406;2022-07-23T07:59:36;25.70;90.00
4390;DHT22;2209;48.982;8.406;2022-07-23T08:01:59;25.70;90.00
4390;DHT22;2209;48.982;8.406;2022-07-23T08:04:21;25.70;90.00
4390;DHT22;2209;48.982;8.406;2022-07-23T08:06:44;25.70;89.90
4390;DHT22;2209;48.982;8.406;2022-07-23T08:09:14;25.70;89.80
4390;DHT22;2209;48.982;8.406;2022-07-23T08:11:36;25.70;90.00
4390;DHT22;2209;48.982;8.406;2022-07-23T08:13:58;25.70;90.00
4390;DHT22;2209;48.982;8.406;2022-07-23T08:16:20;25.70;90.20
4390;DHT22;2209;48.982;8.406;2022-07-23T08:18:44;25.60;90.40
4390;DHT22;2209;48.982;8.406;2022-07-23T08:21:06;25.60;90.50
4390;DHT22;2209;48.982;8.406;2022-07-23T08:23:29;25.60;90.60
4390;DHT22;2209;48.982;8.406;2022-07-23T08:25:51;25.60;90.70
4390;DHT22;2209;48.982;8.406;2022-07-23T08:28:14;25.50;90.60
4390;DHT22;2209;48.982;8.406;2022-07-23T08:30:38;25.50;90.60
4390;DHT22;2209;48.982;8.406;2022-07-23T08:33:02;25.50;90.50
4390;DHT22;2209;48.982;8.406;2022-07-23T08:35:27;25.50;90.50
4390;DHT22;2209;48.982;8.406;2022-07-23T08:37:50;25.50;90.80
4390;DHT22;2209;48.982;8.406;2022-07-23T08:40:12;25.50;91.00
4390;DHT22;2209;48.982;8.406;2022-07-23T08:42:35;25.50;91.10
4390;DHT22;2209;48.982;8.406;2022-07-23T08:44:57;25.50;91.20
4390;DHT22;2209;48.982;8.406;2022-07-23T08:47:20;25.50;91.20
4390;DHT22;2209;48.982;8.406;2022-07-23T08:49:42;25.50;91.20
4390;DHT22;2209;48.982;8.406;2022-07-23T08:52:07;25.50;91.30
4390;DHT22;2209;48.982;8.406;2022-07-23T08:54:30;25.50;91.30
4390;DHT22;2209;48.982;8.406;2022-07-23T08:56:52;25.50;90.90
4390;DHT22;2209;48.982;8.406;2022-07-23T08:59:14;25.60;90.00
4390;DHT22;2209;48.982;8.406;2022-07-23T09:01:36;25.60;89.60
4390;DHT22;2209;48.982;8.406;2022-07-23T09:03:59;25.50;89.40
4390;DHT22;2209;48.982;8.406;2022-07-23T09:06:21;25.50;89.30
4390;DHT22;2209;48.982;8.406;2022-07-23T09:08:45;25.60;89.40
4390;DHT22;2209;48.982;8.406;2022-07-23T09:11:09;25.60;89.20
4390;DHT22;2209;48.982;8.406;2022-07-23T09:13:34;25.60;88.90
4390;DHT22;2209;48.982;8.406;2022-07-23T09:15:58;25.60;88.00
4390;DHT22;2209;48.982;8.406;2022-07-23T09:18:32;25.60;87.50
4390;DHT22;2209;48.982;8.406;2022-07-23T09:21:08;25.70;87.30
4390;DHT22;2209;48.982;8.406;2022-07-23T09:23:37;25.70;87.30
4390;DHT22;2209;48.982;8.406;2022-07-23T09:26:02;25.70;87.60
4390;DHT22;2209;48.982;8.406;2022-07-23T09:28:29;25.70;88.40
4390;DHT22;2209;48.982;8.406;2022-07-23T09:30:51;25.70;87.20
4390;DHT22;2209;48.982;8.406;2022-07-23T09:33:14;25.60;87.20
4390;DHT22;2209;48.982;8.406;2022-07-23T09:35:47;25.60;87.30
4390;DHT22;2209;48.982;8.406;2022-07-23T09:38:10;25.70;87.50
4390;DHT22;2209;48.982;8.406;2022-07-23T09:40:32;25.70;86.60
4390;DHT22;2209;48.982;8.406;2022-07-23T09:42:56;25.70;87.00
4390;DHT22;2209;48.982;8.406;2022-07-23T09:45:18;25.70;87.40
4390;DHT22;2209;48.982;8.406;2022-07-23T09:47:40;25.70;87.70
4390;DHT22;2209;48.982;8.406;2022-07-23T09:50:04;25.70;87.80
4390;DHT22;2209;48.982;8.406;2022-07-23T09:52:30;25.70;87.80
4390;DHT22;2209;48.982;8.406;2022-07-23T09:54:58;25.70;87.70
4390;DHT22;2209;48.982;8.406;2022-07-23T09:57:21;25.80;86.90
4390;DHT22;2209;48.982;8.406;2022-07-23T09:59:45;25.80;85.20
4390;DHT22;2209;48.982;8.406;2022-07-23T10:02:10;25.90;84.50
4390;DHT22;2209;48.982;8.406;2022-07-23T10:04:33;25.80;84.50
4390;DHT22;2209;48.982;8.406;2022-07-23T10:06:57;25.80;84.90
4390;DHT22;2209;48.982;8.406;2022-07-23T10:09:23;25.80;84.80
4390;DHT22;2209;48.982;8.406;2022-07-23T10:11:46;25.80;84.70
4390;DHT22;2209;48.982;8.406;2022-07-23T10:14:09;25.80;85.00
4390;DHT22;2209;48.982;8.406;2022-07-23T10:16:33;25.80;85.20
4390;DHT22;2209;48.982;8.406;2022-07-23T10:18:55;25.80;84.90
4390;DHT22;2209;48.982;8.406;2022-07-23T10:21:24;25.90;85.20
4390;DHT22;2209;48.982;8.406;2022-07-23T10:23:57;25.80;85.20
4390;DHT22;2209;48.982;8.406;2022-07-23T10:26:26;25.80;85.10
4390;DHT22;2209;48.982;8.406;2022-07-23T10:29:02;25.80;84.80
4390;DHT22;2209;48.982;8.406;2022-07-23T10:31:42;25.80;84.50
4390;DHT22;2209;48.982;8.406;2022-07-23T10:34:17;25.90;84.40
4390;DHT22;2209;48.982;8.406;2022-07-23T10:36:46;25.90;84.10
4390;DHT22;2209;48.982;8.406;2022-07-23T10:39:15;25.90;83.40
4390;DHT22;2209;48.982;8.406;2022-07-23T10:41:40;26.00;81.90
4390;DHT22;2209;48.982;8.406;2022-07-23T10:44:07;26.00;81.80
4390;DHT22;2209;48.982;8.406;2022-07-23T10:46:30;26.00;81.50
4390;DHT22;2209;48.982;8.406;2022-07-23T10:49:26;26.00;81.40
4390;DHT22;2209;48.982;8.406;2022-07-23T10:54:41;26.00;81.60
4390;DHT22;2209;48.982;8.406;2022-07-23T10:57:07;26.00;81.70
4390;DHT22;2209;48.982;8.406;2022-07-23T10:59:30;26.00;82.10
4390;DHT22;2209;48.982;8.406;2022-07-23T11:01:52;26.10;82.40
4390;DHT22;2209;48.982;8.406;2022-07-23T11:04:14;26.10;82.20
4390;DHT22;2209;48.982;8.406;2022-07-23T11:07:09;26.10;82.00
4390;DHT22;2209;48.982;8.406;2022-07-23T11:09:39;26.30;80.90
4390;DHT22;2209;48.982;8.406;2022-07-23T11:12:36;26.40;80.00
4390;DHT22;2209;48.982;8.406;2022-07-23T11:14:59;26.40;79.80
4390;DHT22;2209;48.982;8.406;2022-07-23T11:17:21;26.30;79.20
4390;DHT22;2209;48.982;8.406;2022-07-23T11:22:49;26.30;79.00
4390;DHT22;2209;48.982;8.406;2022-07-23T11:25:14;26.20;79.20
4390;DHT22;2209;48.982;8.406;2022-07-23T11:27:51;26.20;79.50
4390;DHT22;2209;48.982;8.406;2022-07-23T11:30:39;26.20;80.20
4390;DHT22;2209;48.982;8.406;2022-07-23T11:33:16;26.40;82.10
4390;DHT22;2209;48.982;8.406;2022-07-23T11:35:40;26.30;81.90
4390;DHT22;2209;48.982;8.406;2022-07-23T11:38:06;26.30;82.10
4390;DHT22;2209;48.982;8.406;2022-07-23T11:40:28;26.40;81.60
4390;DHT22;2209;48.982;8.406;2022-07-23T11:42:53;26.40;81.40
4390;DHT22;2209;48.982;8.406;2022-07-23T11:45:15;26.40;81.40
4390;DHT22;2209;48.982;8.406;2022-07-23T11:47:38;26.40;81.50
4390;DHT22;2209;48.982;8.406;2022-07-23T11:50:03;26.40;81.50
4390;DHT22;2209;48.982;8.406;2022-07-23T11:52:27;26.40;81.70
4390;DHT22;2209;48.982;8.406;2022-07-23T11:54:53;26.60;81.20
4390;DHT22;2209;48.982;8.406;2022-07-23T11:57:15;26.70;81.00
4390;DHT22;2209;48.982;8.406;2022-07-23T11:59:39;26.70;81.20
4390;DHT22;2209;48.982;8.406;2022-07-23T12:02:03;26.70;81.00
4390;DHT22;2209;48.982;8.406;2022-07-23T12:04:37;26.70;80.80
4390;DHT22;2209;48.982;8.406;2022-07-23T12:06:59;26.70;81.40
4390;DHT22;2209;48.982;8.406;2022-07-23T12:09:22;26.70;81.40
4390;DHT22;2209;48.982;8.406;2022-07-23T12:11:58;26.70;81.10
4390;DHT22;2209;48.982;8.406;2022-07-23T12:14:20;26.60;81.20
4390;DHT22;2209;48.982;8.406;2022-07-23T12:16:42;26.60;81.00
4390;DHT22;2209;48.982;8.406;2022-07-23T12:19:05;26.60;81.10
4390;DHT22;2209;48.982;8.406;2022-07-23T12:21:27;26.60;81.10
4390;DHT22;2209;48.982;8.406;2022-07-23T12:23:49;26.70;81.10
4390;DHT22;2209;48.982;8.406;2022-07-23T12:26:11;26.70;80.80
4390;DHT22;2209;48.982;8.406;2022-07-23T12:28:35;26.70;80.30
4390;DHT22;2209;48.982;8.406;2022-07-23T12:30:59;26.80;80.60
4390;DHT22;2209;48.982;8.406;2022-07-23T12:33:23;26.90;78.70
4390;DHT22;2209;48.982;8.406;2022-07-23T12:35:46;27.00;77.60
4390;DHT22;2209;48.982;8.406;2022-07-23T12:38:10;27.00;77.30
4390;DHT22;2209;48.982;8.406;2022-07-23T12:40:34;27.00;77.10
4390;DHT22;2209;48.982;8.406;2022-07-23T12:42:58;27.00;77.10
4390;DHT22;2209;48.982;8.406;2022-07-23T12:45:23;27.20;77.00
4390;DHT22;2209;48.982;8.406;2022-07-23T12:48:02;27.20;77.00
4390;DHT22;2209;48.982;8.406;2022-07-23T12:50:42;27.20;77.20
4390;DHT22;2209;48.982;8.406;2022-07-23T12:53:06;27.30;76.90
4390;DHT22;2209;48.982;8.406;2022-07-23T12:55:29;27.30;76.50
4390;DHT22;2209;48.982;8.406;2022-07-23T12:57:51;27.30;76.10
4390;DHT22;2209;48.982;8.406;2022-07-23T13:00:14;27.40;75.90
4390;DHT22;2209;48.982;8.406;2022-07-23T13:02:46;27.40;75.60
4390;DHT22;2209;48.982;8.406;2022-07-23T13:05:08;27.50;75.40
4390;DHT22;2209;48.982;8.406;2022-07-23T13:07:30;27.50;75.60
4390;DHT22;2209;48.982;8.406;2022-07-23T13:09:52;27.50;75.90
4390;DHT22;2209;48.982;8.406;2022-07-23T13:12:14;27.50;76.20
4390;DHT22;2209;48.982;8.406;2022-07-23T13:14:37;27.50;76.30
4390;DHT22;2209;48.982;8.406;2022-07-23T13:16:59;27.60;76.00
4390;DHT22;2209;48.982;8.406;2022-07-23T13:19:23;27.70;76.00
4390;DHT22;2209;48.982;8.406;2022-07-23T13:21:45;27.70;75.50
4390;DHT22;2209;48.982;8.406;2022-07-23T13:24:08;27.70;74.80
4390;DHT22;2209;48.982;8.406;2022-07-23T13:26:31;27.80;75.00
4390;DHT22;2209;48.982;8.406;2022-07-23T13:28:54;27.80;74.40
4390;DHT22;2209;48.982;8.406;2022-07-23T13:31:16;27.80;73.90
4390;DHT22;2209;48.982;8.406;2022-07-23T13:33:38;27.80;74.30
4390;DHT22;2209;48.982;8.406;2022-07-23T13:36:03;28.00;74.40
4390;DHT22;2209;48.982;8.406;2022-07-23T13:38:26;27.90;74.10
4390;DHT22;2209;48.982;8.406;2022-07-23T13:40:50;27.90;74.60
4390;DHT22;2209;48.982;8.406;2022-07-23T13:43:14;27.90;74.70
4390;DHT22;2209;48.982;8.406;2022-07-23T13:45:37;27.80;74.60
4390;DHT22;2209;48.982;8.406;2022-07-23T13:47:59;27.90;74.70
4390;DHT22;2209;48.982;8.406;2022-07-23T13:50:22;27.90;74.70
4390;DHT22;2209;48.982;8.406;2022-07-23T13:52:46;27.90;74.70
4390;DHT22;2209;48.982;8.406;2022-07-23T13:55:08;27.80;74.50
4390;DHT22;2209;48.982;8.406;2022-07-23T13:57:31;27.80;74.20
4390;DHT22;2209;48.982;8.406;2022-07-23T13:59:54;27.90;74.30
4390;DHT22;2209;48.982;8.406;2022-07-23T14:02:17;27.80;73.60
4390;DHT22;2209;48.982;8.406;2022-07-23T14:04:39;27.80;74.00
4390;DHT22;2209;48.982;8.406;2022-07-23T14:07:01;27.80;74.40
4390;DHT22;2209;48.982;8.406;2022-07-23T14:09:25;28.00;73.30
4390;DHT22;2209;48.982;8.406;2022-07-23T14:11:48;28.10;73.10
4390;DHT22;2209;48.982;8.406;2022-07-23T14:14:11;28.10;72.40
4390;DHT22;2209;48.982;8.406;2022-07-23T14:16:33;28.10;72.00
4390;DHT22;2209;48.982;8.406;2022-07-23T14:18:56;28.20;72.10
4390;DHT22;2209;48.982;8.406;2022-07-23T14:21:18;28.20;72.10
4390;DHT22;2209;48.982;8.406;2022-07-23T14:23:40;28.30;72.00
4390;DHT22;2209;48.982;8.406;2022-07-23T14:26:04;28.30;72.00
4390;DHT22;2209;48.982;8.406;2022-07-23T14:28:26;28.30;72.20
4390;DHT22;2209;48.982;8.406;2022-07-23T14:30:48;28.40;72.90
4390;DHT22;2209;48.982;8.406;2022-07-23T14:33:11;28.40;73.10
4390;DHT22;2209;48.982;8.406;2022-07-23T14:35:33;28.40;72.70
4390;DHT22;2209;48.982;8.406;2022-07-23T14:37:55;28.50;71.40
4390;DHT22;2209;48.982;8.406;2022-07-23T14:40:18;28.50;71.10
4390;DHT22;2209;48.982;8.406;2022-07-23T14:42:41;28.50;71.10
4390;DHT22;2209;48.982;8.406;2022-07-23T14:45:04;28.60;70.20
4390;DHT22;2209;48.982;8.406;2022-07-23T14:47:27;28.70;70.30
4390;DHT22;2209;48.982;8.406;2022-07-23T14:49:49;28.70;70.40
4390;DHT22;2209;48.982;8.406;2022-07-23T14:52:11;28.70;70.30
4390;DHT22;2209;48.982;8.406;2022-07-23T14:54:34;28.70;70.30
4390;DHT22;2209;48.982;8.406;2022-07-23T14:56:57;28.80;69.40
4390;DHT22;2209;48.982;8.406;2022-07-23T14:59:21;28.90;69.70
4390;DHT22;2209;48.982;8.406;2022-07-23T15:01:43;28.90;69.50
4390;DHT22;2209;48.982;8.406;2022-07-23T15:04:06;29.00;68.40
4390;DHT22;2209;48.982;8.406;2022-07-23T15:06:28;29.00;69.00
4390;DHT22;2209;48.982;8.406;2022-07-23T15:08:50;29.00;69.00
4390;DHT22;2209;48.982;8.406;2022-07-23T15:11:13;29.00;69.40
4390;DHT22;2209;48.982;8.406;2022-07-23T15:13:36;29.00;70.10
4390;DHT22;2209;48.982;8.406;2022-07-23T15:16:00;29.00;70.60
4390;DHT22;2209;48.982;8.406;2022-07-23T15:18:22;29.00;70.80
4390;DHT22;2209;48.982;8.406;2022-07-23T15:20:45;29.00;70.30
4390;DHT22;2209;48.982;8.406;2022-07-23T15:23:07;29.10;70.10
4390;DHT22;2209;48.982;8.406;2022-07-23T15:25:30;29.20;69.80
4390;DHT22;2209;48.982;8.406;2022-07-23T15:27:52;29.20;69.60
4390;DHT22;2209;48.982;8.406;2022-07-23T15:30:16;29.10;69.90
4390;DHT22;2209;48.982;8.406;2022-07-23T15:32:40;29.10;70.30
4390;DHT22;2209;48.982;8.406;2022-07-23T15:35:03;29.10;70.10
4390;DHT22;2209;48.982;8.406;2022-07-23T15:37:27;29.10;70.30
4390;DHT22;2209;48.982;8.406;2022-07-23T15:39:51;29.10;70.40
4390;DHT22;2209;48.982;8.406;2022-07-23T15:42:13;29.00;70.80
4390;DHT22;2209;48.982;8.406;2022-07-23T15:44:36;29.00;70.90